createdAt,value
2023-04-06T00:02:53.254Z,0.40
2023-04-06T00:06:55.342Z,0.50
2023-04-06T00:10:57.384Z,0.40
2023-04-06T00:14:59.377Z,0.40
2023-04-06T00:19:01.282Z,0.10
2023-04-06T00:23:03.239Z,0.10
2023-04-06T00:27:05.717Z,-0.20
2023-04-06T00:31:07.866Z,-0.40
2023-04-06T00:35:10.522Z,-0.20
2023-04-06T00:39:12.393Z,-0.10
2023-04-06T00:43:14.971Z,-0.10
2023-04-06T00:47:17.050Z,0.00
2023-04-06T00:51:19.003Z,-0.20
2023-04-06T00:55:21.023Z,-0.30
2023-04-06T00:59:22.978Z,-0.30
2023-04-06T01:03:25.434Z,-0.50
2023-04-06T01:07:27.392Z,-0.50
2023-04-06T01:11:40.927Z,-0.70
2023-04-06T01:15:48.266Z,-0.70
2023-04-06T01:19:56.494Z,-0.60
2023-04-06T01:24:04.566Z,-0.50
2023-04-06T01:28:17.453Z,-0.40
2023-04-06T01:32:38.221Z,-0.30
2023-04-06T01:36:40.443Z,-0.30
2023-04-06T01:40:56.526Z,-0.40
2023-04-06T01:45:00.886Z,-0.50
2023-04-06T01:49:02.917Z,-0.60
2023-04-06T01:53:13.124Z,-0.60
2023-04-06T01:57:17.262Z,-0.60
2023-04-06T02:01:28.018Z,-0.70
2023-04-06T02:05:39.821Z,-0.70
2023-04-06T02:09:56.611Z,-0.80
2023-04-06T02:14:06.937Z,-0.90
2023-04-06T02:18:14.712Z,-0.80
2023-04-06T02:22:16.890Z,-0.90
2023-04-06T02:26:19.090Z,-1.00
2023-04-06T02:30:21.333Z,-1.00
2023-04-06T02:34:23.834Z,-1.10
2023-04-06T02:38:27.362Z,-0.90
2023-04-06T02:42:29.343Z,-0.80
2023-04-06T02:46:31.960Z,-0.90
2023-04-06T02:50:33.985Z,-1.20
2023-04-06T02:54:39.723Z,-1.20
2023-04-06T02:58:41.853Z,-0.90
2023-04-06T03:02:44.175Z,-0.90
2023-04-06T03:06:50.578Z,-1.00
2023-04-06T03:11:02.336Z,-1.30
2023-04-06T03:15:12.303Z,-1.10
2023-04-06T03:19:18.386Z,-1.30
2023-04-06T03:23:21.849Z,-1.30
2023-04-06T03:27:28.427Z,-1.40
2023-04-06T03:31:31.281Z,-1.40
2023-04-06T03:35:43.083Z,-1.40
2023-04-06T03:39:45.173Z,-1.50
2023-04-06T03:43:53.261Z,-1.60
2023-04-06T03:47:55.581Z,-1.60
2023-04-06T03:51:58.230Z,-1.50
2023-04-06T03:56:01.304Z,-1.60
2023-04-06T04:00:05.747Z,-1.70
2023-04-06T04:04:14.426Z,-1.60
2023-04-06T04:08:16.612Z,-1.50
2023-04-06T04:12:18.822Z,-1.70
2023-04-06T04:16:21.008Z,-1.70
2023-04-06T04:20:23.076Z,-1.80
2023-04-06T04:24:25.481Z,-1.80
2023-04-06T04:28:27.772Z,-1.70
2023-04-06T04:32:31.836Z,-1.80
2023-04-06T04:36:36.486Z,-1.80
2023-04-06T04:40:41.845Z,-1.70
2023-04-06T04:44:46.408Z,-1.80
2023-04-06T04:48:49.847Z,-1.80
2023-04-06T04:52:52.005Z,-1.80
2023-04-06T04:56:59.621Z,-1.90
2023-04-06T05:01:15.685Z,-2.10
2023-04-06T05:05:19.086Z,-2.10
2023-04-06T05:09:21.516Z,-2.10
2023-04-06T05:13:23.705Z,-2.00
2023-04-06T05:17:27.396Z,-1.90
2023-04-06T05:21:30.859Z,-2.10
2023-04-06T05:25:37.759Z,-2.20
2023-04-06T05:29:50.003Z,-2.40
2023-04-06T05:33:53.151Z,-2.30
2023-04-06T05:38:10.991Z,-2.20
2023-04-06T05:42:13.130Z,-2.00
2023-04-06T05:46:25.575Z,-2.00
2023-04-06T05:50:30.023Z,-2.10
2023-04-06T05:54:33.885Z,-2.00
2023-04-06T05:58:37.650Z,-2.00
2023-04-06T06:02:43.131Z,-1.70
2023-04-06T06:06:50.618Z,-1.50
2023-04-06T06:10:56.248Z,-1.40
2023-04-06T06:14:59.655Z,-1.10
2023-04-06T06:19:03.620Z,-1.00
2023-04-06T06:23:06.907Z,-0.90
2023-04-06T06:27:09.887Z,-0.90
2023-04-06T06:31:13.754Z,-0.90
2023-04-06T06:35:16.755Z,-0.90
2023-04-06T06:39:18.716Z,-0.90
2023-04-06T06:43:20.892Z,-0.80
2023-04-06T06:47:34.795Z,-0.30
2023-04-06T06:51:36.930Z,-0.10
2023-04-06T06:55:39.057Z,0.10
2023-04-06T06:59:41.071Z,0.30
2023-04-06T07:03:43.976Z,0.20
2023-04-06T07:07:46.025Z,0.50
2023-04-06T07:11:49.220Z,0.70
2023-04-06T07:15:51.559Z,0.80
2023-04-06T07:19:53.669Z,1.00
2023-04-06T07:23:55.890Z,1.00
2023-04-06T07:27:58.228Z,1.20
2023-04-06T07:32:01.059Z,1.30
2023-04-06T07:36:03.353Z,1.40
2023-04-06T07:40:06.211Z,1.60
2023-04-06T07:44:08.555Z,1.60
2023-04-06T07:48:11.106Z,1.80
2023-04-06T07:52:13.702Z,2.00
2023-04-06T07:56:17.318Z,2.20
2023-04-06T08:00:19.720Z,2.40
2023-04-06T08:04:21.716Z,2.60
2023-04-06T08:08:23.780Z,2.70
2023-04-06T08:12:26.075Z,2.70
2023-04-06T08:16:28.221Z,2.80
2023-04-06T08:20:30.453Z,3.00
2023-04-06T08:24:33.408Z,3.20
2023-04-06T08:28:35.630Z,3.20
2023-04-06T08:32:37.847Z,3.40
2023-04-06T08:36:39.868Z,3.60
2023-04-06T08:40:44.423Z,3.50
2023-04-06T08:44:46.961Z,3.70
2023-04-06T08:48:52.532Z,4.00
2023-04-06T08:52:55.292Z,3.90
2023-04-06T08:56:57.916Z,4.10
2023-04-06T09:01:01.574Z,4.10
2023-04-06T09:05:03.982Z,4.20
2023-04-06T09:09:06.022Z,4.60
2023-04-06T09:13:09.474Z,4.50
2023-04-06T09:17:24.394Z,4.60
2023-04-06T09:21:26.858Z,4.70
2023-04-06T09:25:29.122Z,4.70
2023-04-06T09:29:31.068Z,4.90
2023-04-06T09:33:33.220Z,5.20
2023-04-06T09:37:36.276Z,5.20
2023-04-06T09:41:38.409Z,5.40
2023-04-06T09:45:40.730Z,5.50
2023-04-06T09:49:44.194Z,5.90
2023-04-06T09:53:51.674Z,6.00
2023-04-06T09:58:07.413Z,5.70
2023-04-06T10:02:33.621Z,5.20
2023-04-06T10:06:36.663Z,5.70
2023-04-06T10:10:39.274Z,5.10
2023-04-06T10:14:42.898Z,5.80
2023-04-06T10:18:53.260Z,6.30
2023-04-06T10:23:09.419Z,6.50
2023-04-06T10:27:12.265Z,6.80
2023-04-06T10:31:14.826Z,6.30
2023-04-06T10:35:17.461Z,6.60
2023-04-06T10:39:27.021Z,7.10
2023-04-06T10:43:36.565Z,7.50
2023-04-06T10:47:41.876Z,7.10
2023-04-06T10:51:44.046Z,7.50
2023-04-06T10:55:46.708Z,7.40
2023-04-06T10:59:48.854Z,7.40
2023-04-06T11:03:55.054Z,7.20
2023-04-06T11:07:57.429Z,7.10
2023-04-06T11:12:00.066Z,7.00
2023-04-06T11:16:02.174Z,7.10
2023-04-06T11:20:05.832Z,7.40
2023-04-06T11:24:08.859Z,7.80
2023-04-06T11:28:10.957Z,7.30
2023-04-06T11:32:20.792Z,7.90
2023-04-06T11:36:22.911Z,7.80
2023-04-06T11:40:25.940Z,7.90
2023-04-06T11:44:39.758Z,8.00
2023-04-06T11:48:47.838Z,7.60
2023-04-06T11:53:01.074Z,7.50
2023-04-06T11:57:05.021Z,7.60
2023-04-06T12:01:06.938Z,7.40
2023-04-06T12:05:09.409Z,7.50
2023-04-06T12:09:11.316Z,7.60
2023-04-06T12:13:14.000Z,7.80
2023-04-06T12:17:16.166Z,7.90
2023-04-06T12:21:18.520Z,7.60
2023-04-06T12:25:20.703Z,7.10
2023-04-06T12:29:22.766Z,8.10
2023-04-06T12:33:25.039Z,8.50
2023-04-06T12:37:28.152Z,8.90
2023-04-06T12:41:30.782Z,8.80
2023-04-06T12:45:33.223Z,8.80
2023-04-06T12:49:35.540Z,8.70
2023-04-06T12:53:37.778Z,8.30
2023-04-06T12:57:39.776Z,8.70
2023-04-06T13:01:41.841Z,8.30
2023-04-06T13:05:47.985Z,8.60
2023-04-06T13:09:50.764Z,8.60
2023-04-06T13:13:52.655Z,8.70
2023-04-06T13:17:56.410Z,8.60
2023-04-06T13:21:58.757Z,8.80
2023-04-06T13:26:02.430Z,8.70
2023-04-06T13:30:06.829Z,9.20
2023-04-06T13:34:08.967Z,9.30
2023-04-06T13:38:10.941Z,9.70
2023-04-06T13:42:12.884Z,9.70
2023-04-06T13:46:14.890Z,9.20
2023-04-06T13:50:16.817Z,8.60
2023-04-06T13:54:18.821Z,9.30
2023-04-06T13:58:20.754Z,7.90
2023-04-06T14:02:28.154Z,7.70
2023-04-06T14:06:32.007Z,7.30
2023-04-06T14:10:39.250Z,8.30
2023-04-06T14:14:41.272Z,9.30
2023-04-06T14:18:43.785Z,9.40
2023-04-06T14:22:45.851Z,9.50
2023-04-06T14:26:47.911Z,9.60
2023-04-06T14:30:50.027Z,9.70
2023-04-06T14:34:51.911Z,9.80
2023-04-06T14:38:53.998Z,9.80
2023-04-06T14:42:57.480Z,9.60
2023-04-06T14:46:59.476Z,9.40
2023-04-06T14:51:01.590Z,9.60
2023-04-06T14:55:05.415Z,9.40
2023-04-06T14:59:07.585Z,9.40
2023-04-06T15:03:09.733Z,9.50
2023-04-06T15:07:11.992Z,9.40
2023-04-06T15:11:14.370Z,9.10
2023-04-06T15:15:16.402Z,9.10
2023-04-06T15:19:18.523Z,9.60
2023-04-06T15:23:20.508Z,9.70
2023-04-06T15:27:22.572Z,9.80
2023-04-06T15:31:36.825Z,9.70
2023-04-06T15:35:41.288Z,10.00
2023-04-06T15:39:43.980Z,9.70
2023-04-06T15:43:46.147Z,9.80
2023-04-06T15:47:48.483Z,9.70
2023-04-06T15:51:51.827Z,9.80
2023-04-06T15:56:05.518Z,9.90
2023-04-06T16:00:08.908Z,9.40
2023-04-06T16:04:11.903Z,9.50
2023-04-06T16:08:16.855Z,9.10
2023-04-06T16:12:19.942Z,9.60
2023-04-06T16:16:21.974Z,9.70
2023-04-06T16:20:24.070Z,9.80
2023-04-06T16:24:26.170Z,9.80
2023-04-06T16:28:28.492Z,9.80
2023-04-06T16:32:30.379Z,9.90
2023-04-06T16:36:33.668Z,10.00
2023-04-06T16:40:35.887Z,9.70
2023-04-06T16:44:37.942Z,9.70
2023-04-06T16:48:40.014Z,9.70
2023-04-06T16:52:42.510Z,9.60
2023-04-06T16:56:44.542Z,9.60
2023-04-06T17:00:46.582Z,9.70
2023-04-06T17:04:48.491Z,9.70
2023-04-06T17:08:51.290Z,9.70
2023-04-06T17:12:53.337Z,9.70
2023-04-06T17:16:56.623Z,9.60
2023-04-06T17:20:59.463Z,9.60
2023-04-06T17:25:05.517Z,9.50
2023-04-06T17:29:07.416Z,9.60
2023-04-06T17:33:10.100Z,9.60
2023-04-06T17:37:12.309Z,9.50
2023-04-06T17:41:14.493Z,9.50
2023-04-06T17:45:16.995Z,9.50
2023-04-06T17:49:19.028Z,9.30
2023-04-06T17:53:21.237Z,9.40
2023-04-06T17:57:23.455Z,9.30
2023-04-06T18:01:25.786Z,9.20
2023-04-06T18:05:27.817Z,9.20
2023-04-06T18:09:32.900Z,9.10
2023-04-06T18:13:37.089Z,9.00
2023-04-06T18:17:41.663Z,8.80
2023-04-06T18:21:43.846Z,8.80
2023-04-06T18:25:45.808Z,8.70
2023-04-06T18:29:48.123Z,8.60
2023-04-06T18:33:51.358Z,8.70
2023-04-06T18:37:55.130Z,8.50
2023-04-06T18:41:57.084Z,8.50
2023-04-06T18:46:00.585Z,8.40
2023-04-06T18:50:02.604Z,8.20
2023-04-06T18:54:04.729Z,8.20
2023-04-06T18:58:06.797Z,8.10
2023-04-06T19:02:08.908Z,8.10
2023-04-06T19:06:10.937Z,8.10
2023-04-06T19:10:13.756Z,7.90
2023-04-06T19:14:15.677Z,8.00
2023-04-06T19:18:19.247Z,7.90
2023-04-06T19:22:21.313Z,7.80
2023-04-06T19:26:24.338Z,7.80
2023-04-06T19:30:26.654Z,7.50
2023-04-06T19:34:28.930Z,7.40
2023-04-06T19:38:31.013Z,7.50
2023-04-06T19:42:37.218Z,7.50
2023-04-06T19:46:39.293Z,7.40
2023-04-06T19:50:41.551Z,7.30
2023-04-06T19:54:46.779Z,7.30
2023-04-06T19:58:48.767Z,7.00
2023-04-06T20:02:50.839Z,7.00
2023-04-06T20:06:53.644Z,7.20
2023-04-06T20:11:01.834Z,7.00
2023-04-06T20:15:04.410Z,7.00
2023-04-06T20:19:06.438Z,7.10
2023-04-06T20:23:08.654Z,7.10
2023-04-06T20:27:10.631Z,6.90
2023-04-06T20:31:12.505Z,6.90
2023-04-06T20:35:14.498Z,6.80
2023-04-06T20:39:16.573Z,6.10
2023-04-06T20:43:20.655Z,6.30
2023-04-06T20:47:22.842Z,6.50
2023-04-06T20:51:25.574Z,6.70
2023-04-06T20:55:27.834Z,6.60
2023-04-06T20:59:29.806Z,6.50
2023-04-06T21:03:32.199Z,6.50
2023-04-06T21:07:34.230Z,6.50
2023-04-06T21:11:36.183Z,6.70
2023-04-06T21:15:38.443Z,6.70
2023-04-06T21:19:40.470Z,6.70
2023-04-06T21:23:42.384Z,6.80
2023-04-06T21:27:44.390Z,6.70
2023-04-06T21:31:46.225Z,6.80
2023-04-06T21:35:48.679Z,6.50
2023-04-06T21:39:50.478Z,6.60
2023-04-06T21:43:52.534Z,6.60
2023-04-06T21:47:54.419Z,5.90
2023-04-06T21:51:56.512Z,5.30
2023-04-06T21:55:58.528Z,6.10
2023-04-06T22:00:00.765Z,6.20
2023-04-06T22:04:02.685Z,6.40
2023-04-06T22:08:05.050Z,6.50
2023-04-06T22:12:07.009Z,6.10
2023-04-06T22:16:09.210Z,6.10
2023-04-06T22:20:11.154Z,6.10
2023-04-06T22:24:13.581Z,6.20
2023-04-06T22:28:15.707Z,6.30
2023-04-06T22:32:17.580Z,6.60
2023-04-06T22:36:19.625Z,6.60
2023-04-06T22:40:21.624Z,6.50
2023-04-06T22:44:23.551Z,6.20
2023-04-06T22:48:25.869Z,6.10
2023-04-06T22:52:28.225Z,6.10
2023-04-06T22:56:30.041Z,6.10
2023-04-06T23:00:32.011Z,6.40
2023-04-06T23:04:34.019Z,6.60
2023-04-06T23:08:36.083Z,6.80
2023-04-06T23:12:38.145Z,6.80
2023-04-06T23:16:40.084Z,6.90
2023-04-06T23:20:42.045Z,6.80
2023-04-06T23:24:43.967Z,6.60
2023-04-06T23:28:46.049Z,6.80
2023-04-06T23:32:47.876Z,7.00
2023-04-06T23:36:49.899Z,7.10
2023-04-06T23:40:52.068Z,7.20
2023-04-06T23:44:54.081Z,7.50
2023-04-06T23:48:56.047Z,7.10
2023-04-06T23:52:58.908Z,6.80
2023-04-06T23:57:01.952Z,6.90
